Time;durP1;ratioP1;P1;durP2;ratioP2;P2;SDS_P1;SDS_P2;PMS_P1;PMS_P2;Temp;Humidity;BMP_temperature;BMP_pressure;BME280_temperature;BME280_humidity;BME280_pressure;Samples;Min_cycle;Max_cycle;Signal;HPM_P1;HPM_P2
2022/10/24 00:02:23;;;;;;;12.27;2.47;;;14.40;99.90;;;;;;4857548;29;20171;-82
2022/10/24 00:04:49;;;;;;;8.00;1.70;;;14.50;99.90;;;;;;4857812;29;20049;-82
2022/10/24 00:07:15;;;;;;;12.43;2.42;;;14.40;99.90;;;;;;4858761;29;20172;-82
2022/10/24 00:09:41;;;;;;;14.65;2.25;;;14.50;99.90;;;;;;4857203;29;20149;-82
2022/10/24 00:12:07;;;;;;;8.30;1.88;;;14.40;99.90;;;;;;4858676;29;20060;-82
2022/10/24 00:14:33;;;;;;;7.20;1.60;;;14.50;99.90;;;;;;4858042;29;20067;-82
2022/10/24 00:16:59;;;;;;;10.27;2.08;;;14.40;99.90;;;;;;4857335;29;20080;-82
2022/10/24 00:19:25;;;;;;;14.07;2.13;;;14.40;99.90;;;;;;4858072;29;20136;-82
2022/10/24 00:21:50;;;;;;;7.20;1.98;;;14.40;99.90;;;;;;4857901;29;20509;-82
2022/10/24 00:24:16;;;;;;;6.38;1.55;;;14.30;99.90;;;;;;4857550;29;20045;-81
2022/10/24 00:26:42;;;;;;;8.55;1.70;;;14.30;99.90;;;;;;4873335;29;20048;-82
2022/10/24 00:29:08;;;;;;;7.07;1.88;;;14.30;99.90;;;;;;4858179;29;20578;-82
2022/10/24 00:31:34;;;;;;;4.30;1.90;;;14.30;99.90;;;;;;4857973;29;20077;-82
2022/10/24 00:34:00;;;;;;;8.88;1.63;;;14.30;99.90;;;;;;4856511;29;20230;-81
2022/10/24 00:36:26;;;;;;;6.85;1.60;;;14.30;99.90;;;;;;4858372;29;20144;-82
2022/10/24 00:38:53;;;;;;;15.35;2.05;;;14.30;99.90;;;;;;4872014;29;20041;-82
2022/10/24 00:41:23;;;;;;;8.15;1.48;;;14.20;99.90;;;;;;4858266;29;20053;-82
2022/10/24 00:43:49;;;;;;;9.10;1.40;;;14.20;99.90;;;;;;4872760;29;20057;-83
2022/10/24 00:46:17;;;;;;;9.98;2.08;;;14.20;99.90;;;;;;4873319;29;20385;-82
2022/10/24 00:48:50;;;;;;;6.03;1.33;;;14.20;99.90;;;;;;4856369;29;20057;-82
2022/10/24 00:51:25;;;;;;;5.55;1.55;;;14.20;99.90;;;;;;4858312;29;20458;-82
2022/10/24 00:53:57;;;;;;;8.20;1.45;;;14.20;99.90;;;;;;4856548;29;20085;-82
2022/10/24 00:56:26;;;;;;;4.03;1.25;;;14.20;99.90;;;;;;4873299;29;20056;-82
2022/10/24 00:58:53;;;;;;;6.40;1.25;;;14.10;99.90;;;;;;4872122;29;20045;-82
2022/10/24 01:01:19;;;;;;;6.78;1.55;;;14.20;99.90;;;;;;4851699;29;20046;-82
2022/10/24 01:03:44;;;;;;;9.45;1.95;;;14.20;99.90;;;;;;4825577;29;20054;-82
2022/10/24 01:06:39;;;;;;;8.43;1.75;;;14.30;99.90;;;;;;4821089;29;20491;-83
2022/10/24 01:09:26;;;;;;;5.43;1.30;;;14.20;99.90;;;;;;4805448;29;20145;-82
2022/10/24 01:12:19;;;;;;;7.55;1.50;;;14.20;99.90;;;;;;4820845;29;20087;-82
2022/10/24 01:14:56;;;;;;;8.93;1.75;;;14.30;99.90;;;;;;4835553;29;20060;-82
2022/10/24 01:17:34;;;;;;;6.85;1.38;;;14.30;99.90;;;;;;4820530;29;20466;-82
2022/10/24 01:19:59;;;;;;;10.85;1.50;;;14.20;99.90;;;;;;4820192;29;20134;-82
2022/10/24 01:22:36;;;;;;;5.38;1.20;;;14.20;99.90;;;;;;4821062;29;20141;-82
2022/10/24 01:25:05;;;;;;;10.50;1.77;;;14.10;99.90;;;;;;4820760;29;20589;-82
2022/10/24 01:27:43;;;;;;;11.10;1.30;;;14.20;99.90;;;;;;4819913;29;20086;-82
2022/10/24 01:30:12;;;;;;;16.15;1.83;;;14.10;99.90;;;;;;4836113;29;20095;-82
2022/10/24 01:32:56;;;;;;;10.07;1.42;;;14.10;99.90;;;;;;4805018;29;20042;-82
2022/10/24 01:35:34;;;;;;;4.60;1.10;;;14.10;99.90;;;;;;4841228;29;20065;-82
2022/10/24 01:38:13;;;;;;;11.02;1.67;;;14.20;99.90;;;;;;4828554;29;20060;-82
2022/10/24 01:40:45;;;;;;;9.07;1.58;;;14.10;99.90;;;;;;4839134;29;20125;-82
2022/10/24 01:43:13;;;;;;;10.40;1.48;;;14.30;99.90;;;;;;4833833;29;20107;-82
2022/10/24 01:45:44;;;;;;;8.95;1.50;;;14.20;99.90;;;;;;4823572;29;20101;-82
2022/10/24 01:48:16;;;;;;;4.90;1.30;;;14.30;99.90;;;;;;4837249;29;20146;-82
2022/10/24 01:50:46;;;;;;;8.77;1.48;;;14.30;99.90;;;;;;4808870;29;20060;-82
2022/10/24 01:53:13;;;;;;;10.55;1.73;;;14.30;99.90;;;;;;4808547;29;20056;-82
2022/10/24 01:55:39;;;;;;;8.15;1.70;;;14.40;99.90;;;;;;4822980;29;20264;-82
2022/10/24 01:58:07;;;;;;;9.18;1.60;;;14.50;99.90;;;;;;4838870;29;20045;-82
2022/10/24 02:00:33;;;;;;;9.65;1.98;;;14.50;99.90;;;;;;4864536;29;20061;-82
2022/10/24 02:03:07;;;;;;;15.07;1.85;;;14.50;99.90;;;;;;4858410;29;20110;-82
2022/10/24 02:05:35;;;;;;;11.32;1.67;;;14.50;99.90;;;;;;4876406;29;20048;-82
2022/10/24 02:08:06;;;;;;;8.18;1.50;;;14.60;99.90;;;;;;4859473;29;20048;-82
2022/10/24 02:10:37;;;;;;;8.50;1.58;;;14.80;99.90;;;;;;4875354;29;20045;-82
2022/10/24 02:13:08;;;;;;;14.80;1.80;;;14.70;99.90;;;;;;4859671;29;20044;-82
2022/10/24 02:15:41;;;;;;;8.23;2.08;;;14.60;99.90;;;;;;4860192;29;20402;-82
2022/10/24 02:18:07;;;;;;;8.18;1.52;;;14.70;99.90;;;;;;4858979;29;20398;-82
2022/10/24 02:20:41;;;;;;;6.05;1.98;;;14.80;99.90;;;;;;4844611;29;20604;-82
2022/10/24 02:23:20;;;;;;;15.07;2.20;;;14.70;99.90;;;;;;4860437;29;20182;-82
2022/10/24 02:25:49;;;;;;;10.70;2.35;;;14.70;99.90;;;;;;4859998;29;20045;-83
2022/10/24 02:28:20;;;;;;;13.50;1.70;;;14.80;99.90;;;;;;4859392;29;20139;-82
2022/10/24 02:30:52;;;;;;;7.38;1.70;;;14.70;99.90;;;;;;4859343;29;20059;-82
2022/10/24 02:33:19;;;;;;;8.38;1.75;;;14.80;99.90;;;;;;4858902;29;20084;-82
2022/10/24 02:35:47;;;;;;;4.40;1.70;;;14.70;99.90;;;;;;4859500;29;20521;-82
2022/10/24 02:38:20;;;;;;;8.75;1.85;;;14.70;99.90;;;;;;4858777;29;20063;-82
2022/10/24 02:40:48;;;;;;;11.32;1.80;;;14.80;99.90;;;;;;4859548;29;20041;-82
2022/10/24 02:43:16;;;;;;;11.18;1.95;;;14.80;99.90;;;;;;4859801;29;20049;-82
2022/10/24 02:45:42;;;;;;;8.65;1.73;;;14.80;99.90;;;;;;4858841;29;20081;-82
2022/10/24 02:48:12;;;;;;;14.70;2.00;;;14.80;99.90;;;;;;4857333;29;20073;-82
2022/10/24 02:50:40;;;;;;;10.45;1.73;;;14.80;99.90;;;;;;4859815;29;20128;-82
2022/10/24 02:53:09;;;;;;;8.00;1.70;;;14.80;99.90;;;;;;4858432;29;20052;-82
2022/10/24 02:55:35;;;;;;;13.00;2.40;;;14.80;99.90;;;;;;4859780;29;20105;-82
2022/10/24 02:58:00;;;;;;;6.40;1.98;;;14.80;99.90;;;;;;4858425;29;20053;-83
2022/10/24 03:00:26;;;;;;;9.20;1.55;;;14.80;99.90;;;;;;4858890;29;20074;-82
2022/10/24 03:02:52;;;;;;;19.52;2.20;;;14.90;99.90;;;;;;4857966;29;20053;-82
2022/10/24 03:05:17;;;;;;;16.42;2.00;;;14.80;99.90;;;;;;4859660;29;20041;-82
2022/10/24 03:07:43;;;;;;;11.65;1.83;;;14.80;99.90;;;;;;4858058;29;20065;-81
2022/10/24 03:10:09;;;;;;;18.33;2.30;;;14.90;99.90;;;;;;4859121;29;20052;-82
2022/10/24 03:12:34;;;;;;;11.00;2.20;;;14.90;99.90;;;;;;4874105;29;20099;-82
2022/10/24 03:15:00;;;;;;;18.60;1.80;;;14.90;99.90;;;;;;4858601;29;20061;-82
2022/10/24 03:17:26;;;;;;;9.52;2.13;;;14.90;99.90;;;;;;4858468;29;20113;-81
2022/10/24 03:19:51;;;;;;;9.02;1.60;;;14.80;99.90;;;;;;4858146;29;20060;-82
2022/10/24 03:22:17;;;;;;;9.07;1.92;;;14.80;99.90;;;;;;4858662;29;20097;-82
2022/10/24 03:24:42;;;;;;;16.67;2.08;;;14.80;99.90;;;;;;4858786;29;20128;-82
2022/10/24 03:27:08;;;;;;;13.38;1.95;;;14.90;99.90;;;;;;4858586;29;20041;-82
2022/10/24 03:29:34;;;;;;;21.38;2.00;;;14.90;99.90;;;;;;4858727;29;20450;-82
2022/10/24 03:31:59;;;;;;;11.77;1.95;;;14.90;99.90;;;;;;4858714;29;20047;-82
2022/10/24 03:34:25;;;;;;;4.18;1.23;;;15.00;99.90;;;;;;4857117;29;20085;-82
2022/10/24 03:36:51;;;;;;;9.93;1.90;;;15.00;99.90;;;;;;4858372;29;20056;-82
2022/10/24 03:39:16;;;;;;;14.05;1.80;;;15.00;99.90;;;;;;4843636;29;20101;-82
2022/10/24 03:41:42;;;;;;;13.82;2.42;;;15.10;99.90;;;;;;4857302;29;20045;-82
2022/10/24 03:44:07;;;;;;;12.10;1.90;;;15.40;99.90;;;;;;4858516;29;20581;-82
2022/10/24 03:46:33;;;;;;;8.90;2.03;;;15.10;99.90;;;;;;4858498;29;20049;-82
2022/10/24 03:48:59;;;;;;;9.10;1.92;;;15.10;99.90;;;;;;4856357;29;20370;-81
2022/10/24 03:51:24;;;;;;;17.75;2.35;;;15.10;99.90;;;;;;4858705;29;20045;-82
2022/10/24 03:53:50;;;;;;;8.75;1.90;;;15.10;99.90;;;;;;4857411;29;20140;-82
2022/10/24 03:56:16;;;;;;;8.07;1.80;;;15.20;99.90;;;;;;4857843;29;20047;-82
2022/10/24 03:58:41;;;;;;;11.57;1.85;;;15.10;99.90;;;;;;4857572;29;20092;-82
2022/10/24 04:01:09;;;;;;;10.95;2.28;;;15.10;99.90;;;;;;4842993;29;20045;-82
2022/10/24 04:03:34;;;;;;;15.25;2.35;;;15.30;99.90;;;;;;4857134;29;20100;-82
2022/10/24 04:06:00;;;;;;;11.55;1.80;;;15.20;99.90;;;;;;4847709;29;20128;-81
2022/10/24 04:08:25;;;;;;;9.38;1.73;;;15.10;99.90;;;;;;4877063;29;20104;-82
2022/10/24 04:10:51;;;;;;;8.52;2.10;;;15.20;99.90;;;;;;4875609;29;20063;-82
2022/10/24 04:13:17;;;;;;;6.55;1.65;;;15.20;99.90;;;;;;4871797;29;20060;-81
2022/10/24 04:15:42;;;;;;;10.57;2.42;;;15.20;99.90;;;;;;4857330;29;20189;-82
2022/10/24 04:18:08;;;;;;;7.55;1.90;;;15.20;99.90;;;;;;4857323;29;20196;-81
2022/10/24 04:20:35;;;;;;;9.18;2.22;;;15.10;99.90;;;;;;4858660;29;20045;-82
2022/10/24 04:23:00;;;;;;;11.48;2.08;;;15.10;99.90;;;;;;4872406;29;20690;-81
2022/10/24 04:25:26;;;;;;;8.68;2.30;;;15.10;99.90;;;;;;4874131;29;20053;-82
2022/10/24 04:27:51;;;;;;;8.88;2.28;;;15.00;99.90;;;;;;4889553;29;20067;-82
2022/10/24 04:30:17;;;;;;;6.80;1.98;;;15.00;99.90;;;;;;4848221;29;20715;-82
2022/10/24 04:32:43;;;;;;;15.82;2.22;;;14.90;99.90;;;;;;4872183;29;20421;-83
2022/10/24 04:35:09;;;;;;;15.68;2.15;;;14.90;99.90;;;;;;4841788;29;20071;-83
2022/10/24 04:37:35;;;;;;;8.20;2.15;;;14.80;99.90;;;;;;4856809;29;20049;-83
2022/10/24 04:40:00;;;;;;;14.80;2.00;;;14.70;99.90;;;;;;4857451;29;20056;-83
2022/10/24 04:42:26;;;;;;;10.57;1.63;;;14.70;99.90;;;;;;4841776;29;20056;-83
2022/10/24 04:44:52;;;;;;;8.00;2.42;;;14.70;99.90;;;;;;4856421;29;20041;-82
2022/10/24 04:47:17;;;;;;;6.85;2.08;;;14.60;99.90;;;;;;4856978;29;20060;-83
2022/10/24 04:49:43;;;;;;;7.90;1.77;;;14.60;99.90;;;;;;4872403;29;20052;-83
2022/10/24 04:52:09;;;;;;;12.52;2.08;;;14.50;99.90;;;;;;4857124;29;20067;-83
2022/10/24 04:54:35;;;;;;;7.03;2.05;;;14.50;99.90;;;;;;4857503;29;20409;-83
2022/10/24 04:57:00;;;;;;;8.68;1.88;;;14.50;99.90;;;;;;4872650;29;20581;-83
2022/10/24 04:59:26;;;;;;;9.10;1.75;;;14.40;99.90;;;;;;4856744;29;20073;-83
2022/10/24 05:01:53;;;;;;;16.80;2.38;;;14.40;99.90;;;;;;4841330;29;20103;-83
2022/10/24 05:04:19;;;;;;;9.82;1.90;;;14.40;99.90;;;;;;4856777;29;20498;-83
2022/10/24 05:06:45;;;;;;;12.20;2.33;;;14.30;99.90;;;;;;4840491;29;20049;-83
2022/10/24 05:09:12;;;;;;;10.10;1.75;;;14.30;99.90;;;;;;4857130;29;20072;-83
2022/10/24 05:11:38;;;;;;;10.88;1.90;;;14.30;99.90;;;;;;4858617;29;20507;-84
2022/10/24 05:14:03;;;;;;;13.52;1.65;;;14.20;99.90;;;;;;4860069;29;20081;-83
2022/10/24 05:16:29;;;;;;;12.15;1.63;;;14.20;99.90;;;;;;4871035;29;20037;-83
2022/10/24 05:18:55;;;;;;;7.53;1.60;;;14.10;99.90;;;;;;4889867;29;20044;-83
2022/10/24 05:21:20;;;;;;;8.43;1.75;;;14.30;99.90;;;;;;4860146;29;20055;-82
2022/10/24 05:23:46;;;;;;;14.07;3.88;;;14.10;99.90;;;;;;4877102;29;20061;-83
2022/10/24 05:26:12;;;;;;;10.02;1.50;;;14.10;99.90;;;;;;4868417;29;20051;-83
2022/10/24 05:28:37;;;;;;;10.38;1.65;;;14.10;99.90;;;;;;4876274;29;20135;-82
2022/10/24 05:31:03;;;;;;;8.95;1.73;;;14.10;99.90;;;;;;4854242;29;20407;-83
2022/10/24 05:33:29;;;;;;;10.15;1.95;;;14.10;99.90;;;;;;4867174;29;20409;-83
2022/10/24 05:35:55;;;;;;;12.27;1.83;;;14.10;99.90;;;;;;4852958;29;20476;-83
2022/10/24 05:38:21;;;;;;;7.22;1.70;;;14.10;99.90;;;;;;4854325;29;20060;-83
2022/10/24 05:40:48;;;;;;;5.68;1.67;;;14.20;99.90;;;;;;4868967;29;20045;-82
2022/10/24 05:43:15;;;;;;;9.52;2.17;;;14.10;99.90;;;;;;4852963;29;20049;-83
2022/10/24 05:45:41;;;;;;;9.18;1.60;;;14.10;99.90;;;;;;4867945;29;20521;-83
2022/10/24 05:48:07;;;;;;;11.48;1.70;;;14.10;99.90;;;;;;4865920;29;20454;-83
2022/10/24 05:50:33;;;;;;;8.93;1.83;;;14.20;99.90;;;;;;4876654;29;20493;-83
2022/10/24 05:53:00;;;;;;;9.52;1.60;;;14.20;99.90;;;;;;4849845;29;20056;-83
2022/10/24 05:55:26;;;;;;;7.65;1.77;;;14.20;99.90;;;;;;4867568;29;20495;-83
2022/10/24 05:57:51;;;;;;;10.43;1.73;;;14.20;99.90;;;;;;4853396;29;20497;-83
2022/10/24 06:00:18;;;;;;;10.30;1.55;;;14.30;99.90;;;;;;4875094;29;20078;-83
2022/10/24 06:02:44;;;;;;;11.25;2.00;;;14.30;99.90;;;;;;4899922;29;20086;-82
2022/10/24 06:05:11;;;;;;;6.55;1.60;;;14.30;99.90;;;;;;4860165;29;20037;-83
2022/10/24 06:07:37;;;;;;;14.13;1.83;;;14.40;99.90;;;;;;4876632;29;20040;-83
2022/10/24 06:10:05;;;;;;;14.90;1.48;;;14.40;99.90;;;;;;4851742;29;20052;-82
2022/10/24 06:12:31;;;;;;;14.20;1.58;;;14.50;99.90;;;;;;4851755;29;20493;-83
2022/10/24 06:14:58;;;;;;;8.73;1.45;;;14.60;99.90;;;;;;4851158;29;20045;-83
2022/10/24 06:17:24;;;;;;;6.13;1.27;;;14.50;99.90;;;;;;4841942;29;20105;-83
2022/10/24 06:19:50;;;;;;;22.13;1.92;;;14.60;99.90;;;;;;4853696;29;20044;-83
2022/10/24 06:22:17;;;;;;;9.13;1.52;;;14.60;99.90;;;;;;4882071;29;20049;-83
2022/10/24 06:24:42;;;;;;;5.72;1.05;;;14.60;99.90;;;;;;4868641;29;20436;-82
2022/10/24 06:27:09;;;;;;;9.68;1.60;;;14.60;99.90;;;;;;4875348;29;20132;-83
2022/10/24 06:29:35;;;;;;;11.63;1.35;;;14.60;99.90;;;;;;4852526;29;20080;-83
2022/10/24 06:32:01;;;;;;;9.15;1.60;;;14.60;99.90;;;;;;4868020;29;20410;-83
2022/10/24 06:34:27;;;;;;;9.88;1.58;;;14.70;99.90;;;;;;4851718;29;20045;-83
2022/10/24 06:36:56;;;;;;;7.75;1.30;;;14.70;99.90;;;;;;4871497;29;20107;-89
2022/10/24 06:39:24;;;;;;;10.48;1.23;;;14.70;99.90;;;;;;4870762;29;20048;-88
2022/10/24 06:41:49;;;;;;;8.27;1.15;;;14.70;99.90;;;;;;4878561;29;20041;-82
2022/10/24 06:44:15;;;;;;;13.30;1.60;;;14.60;99.90;;;;;;4860028;29;20059;-83
2022/10/24 06:46:41;;;;;;;9.93;1.63;;;14.60;99.90;;;;;;4875058;29;20044;-83
2022/10/24 06:49:07;;;;;;;10.45;1.35;;;14.80;99.90;;;;;;4873984;29;20099;-83
2022/10/24 06:51:32;;;;;;;9.65;1.13;;;14.60;99.90;;;;;;4875375;29;20037;-83
2022/10/24 06:53:58;;;;;;;11.27;1.30;;;14.60;99.90;;;;;;4873365;29;20422;-83
2022/10/24 06:56:25;;;;;;;9.20;1.35;;;14.60;99.90;;;;;;4873839;29;20049;-83
2022/10/24 06:58:50;;;;;;;15.10;2.00;;;14.70;99.90;;;;;;4875591;29;20386;-83
2022/10/24 07:01:20;;;;;;;8.40;1.75;;;14.70;99.90;;;;;;4877044;29;20119;-83
2022/10/24 07:03:46;;;;;;;4.45;0.98;;;14.80;99.90;;;;;;4875448;29;20068;-83
2022/10/24 07:06:16;;;;;;;10.52;1.45;;;14.80;99.90;;;;;;4876766;29;20044;-83
2022/10/24 07:08:43;;;;;;;10.73;1.30;;;14.90;99.90;;;;;;4875746;29;20052;-83
2022/10/24 07:11:08;;;;;;;12.20;1.92;;;15.00;99.90;;;;;;4877179;29;20056;-83
2022/10/24 07:13:34;;;;;;;7.28;1.33;;;15.00;99.90;;;;;;4860797;29;20045;-83
2022/10/24 07:16:00;;;;;;;11.77;1.70;;;15.10;99.90;;;;;;4875875;29;20545;-86
2022/10/24 07:18:25;;;;;;;14.27;1.60;;;15.10;99.90;;;;;;4875708;29;20189;-83
2022/10/24 07:20:51;;;;;;;12.82;1.60;;;15.20;99.90;;;;;;4860011;29;20139;-83
2022/10/24 07:23:17;;;;;;;9.40;1.40;;;15.30;99.90;;;;;;4876688;29;20049;-83
2022/10/24 07:25:44;;;;;;;9.45;1.80;;;15.30;99.90;;;;;;4849331;29;20060;-83
2022/10/24 07:28:10;;;;;;;8.48;1.30;;;15.30;99.90;;;;;;4875795;29;20127;-83
2022/10/24 07:30:36;;;;;;;12.20;1.73;;;15.30;99.90;;;;;;4860646;29;20519;-83
2022/10/24 07:33:03;;;;;;;5.80;1.30;;;15.30;99.90;;;;;;4873564;29;20080;-83
2022/10/24 07:35:28;;;;;;;12.10;1.30;;;15.30;99.90;;;;;;4876054;29;20048;-83
2022/10/24 07:37:54;;;;;;;7.15;1.10;;;15.40;99.90;;;;;;4875931;29;20059;-83
2022/10/24 07:40:20;;;;;;;8.25;0.90;;;15.40;99.90;;;;;;4860558;29;20037;-83
2022/10/24 07:42:46;;;;;;;9.13;1.13;;;15.50;99.90;;;;;;4860268;29;20425;-83
2022/10/24 07:45:11;;;;;;;8.80;1.60;;;15.50;99.90;;;;;;4860713;29;20046;-83
2022/10/24 07:47:37;;;;;;;15.40;1.27;;;15.50;99.90;;;;;;4874925;29;20572;-84
2022/10/24 07:50:04;;;;;;;9.82;1.27;;;15.50;99.90;;;;;;4876059;29;20123;-83
2022/10/24 07:52:30;;;;;;;10.63;1.38;;;15.50;99.90;;;;;;4860650;29;20074;-83
2022/10/24 07:54:57;;;;;;;10.30;1.30;;;15.60;99.90;;;;;;4859689;29;20088;-83
2022/10/24 07:57:23;;;;;;;7.28;1.00;;;15.60;99.90;;;;;;4860504;29;20044;-83
2022/10/24 07:59:49;;;;;;;10.32;1.33;;;15.60;99.90;;;;;;4875589;29;20532;-84
2022/10/24 08:02:16;;;;;;;9.30;1.40;;;15.70;99.90;;;;;;4859139;29;20429;-83
2022/10/24 08:04:42;;;;;;;13.02;1.42;;;15.70;99.90;;;;;;4856816;29;20048;-83
2022/10/24 08:07:11;;;;;;;6.55;1.10;;;15.70;99.90;;;;;;4857428;29;20060;-84
2022/10/24 08:09:43;;;;;;;10.63;1.65;;;15.80;99.90;;;;;;4857019;29;20084;-83
2022/10/24 08:12:09;;;;;;;11.32;2.03;;;15.80;99.90;;;;;;4857568;29;20053;-84
2022/10/24 08:14:37;;;;;;;9.88;1.67;;;15.80;99.90;;;;;;4857288;29;20055;-83
2022/10/24 08:17:03;;;;;;;11.07;1.40;;;15.90;99.90;;;;;;4856601;29;20115;-83
2022/10/24 08:19:30;;;;;;;12.38;1.55;;;16.00;99.90;;;;;;4856950;29;20057;-83
2022/10/24 08:21:55;;;;;;;5.28;1.15;;;16.10;99.90;;;;;;4856785;29;20100;-83
2022/10/24 08:24:21;;;;;;;12.93;1.65;;;16.20;99.90;;;;;;4857169;29;20053;-83
2022/10/24 08:26:47;;;;;;;8.50;1.17;;;16.20;99.90;;;;;;4857663;29;20148;-83
2022/10/24 08:29:20;;;;;;;11.50;1.20;;;16.20;99.90;;;;;;4856628;29;20059;-84
2022/10/24 08:31:49;;;;;;;12.02;1.73;;;16.20;99.90;;;;;;4857291;29;20092;-84
2022/10/24 08:34:15;;;;;;;14.50;1.50;;;16.20;99.90;;;;;;4856631;29;20199;-84
2022/10/24 08:36:41;;;;;;;9.13;1.35;;;16.20;99.90;;;;;;4856789;29;20045;-83
2022/10/24 08:39:07;;;;;;;11.18;1.80;;;16.20;99.90;;;;;;4857550;29;20386;-85
2022/10/24 08:41:45;;;;;;;8.40;1.13;;;16.30;99.90;;;;;;4856950;29;20041;-83
2022/10/24 08:44:17;;;;;;;9.77;1.50;;;16.20;99.90;;;;;;4856853;29;20152;-85
2022/10/24 08:46:51;;;;;;;6.50;1.65;;;16.20;99.90;;;;;;4856374;29;20076;-84
2022/10/24 08:49:28;;;;;;;10.57;1.30;;;16.10;99.90;;;;;;4856806;29;20073;-84
2022/10/24 08:51:57;;;;;;;9.05;1.33;;;16.10;99.90;;;;;;4856163;29;20053;-85
2022/10/24 08:54:30;;;;;;;12.80;1.50;;;16.10;99.90;;;;;;4857415;29;20060;-84
2022/10/24 08:56:58;;;;;;;6.03;0.98;;;16.00;99.90;;;;;;4857094;29;20041;-83
2022/10/24 08:59:27;;;;;;;12.38;1.27;;;16.10;99.90;;;;;;4856724;29;20128;-84
2022/10/24 09:01:59;;;;;;;4.32;1.00;;;16.10;99.90;;;;;;4859514;29;20049;-83
2022/10/24 09:04:29;;;;;;;9.27;1.08;;;16.00;99.90;;;;;;4855465;29;20402;-83
2022/10/24 09:06:56;;;;;;;8.80;1.50;;;16.00;99.90;;;;;;4856813;29;20065;-82
2022/10/24 09:09:30;;;;;;;6.65;1.27;;;15.90;99.90;;;;;;4841276;29;20049;-83
2022/10/24 09:12:01;;;;;;;8.20;1.20;;;15.90;99.90;;;;;;4841256;29;20120;-84
2022/10/24 09:14:33;;;;;;;14.13;1.67;;;15.80;99.90;;;;;;4870349;29;20585;-84
2022/10/24 09:17:01;;;;;;;10.50;1.27;;;15.80;99.90;;;;;;4874942;29;20107;-84
2022/10/24 09:19:29;;;;;;;7.32;1.30;;;15.80;99.90;;;;;;4874117;29;20643;-83
2022/10/24 09:21:57;;;;;;;7.53;1.52;;;15.80;99.90;;;;;;4876026;29;20453;-83
2022/10/24 09:24:38;;;;;;;13.52;1.65;;;15.80;99.90;;;;;;4876155;29;20095;-84
2022/10/24 09:27:09;;;;;;;8.60;1.50;;;15.90;99.90;;;;;;4861037;29;20064;-86
2022/10/24 09:29:35;;;;;;;10.38;2.00;;;15.90;99.90;;;;;;4864595;29;20088;-85
2022/10/24 09:32:01;;;;;;;13.15;1.55;;;15.90;99.90;;;;;;4855200;29;20072;-84
2022/10/24 09:34:27;;;;;;;10.68;1.30;;;15.80;99.90;;;;;;4847379;29;20076;-85
2022/10/24 09:36:52;;;;;;;16.48;2.22;;;15.90;99.90;;;;;;4852060;29;20509;-84
2022/10/24 09:39:28;;;;;;;9.48;1.38;;;15.80;99.90;;;;;;4872033;29;20045;-84
2022/10/24 09:41:55;;;;;;;10.30;1.83;;;15.70;99.90;;;;;;4867996;29;20473;-85
2022/10/24 09:44:31;;;;;;;9.70;1.27;;;15.70;99.90;;;;;;4867126;29;20052;-83
2022/10/24 09:46:58;;;;;;;11.80;1.27;;;15.70;99.90;;;;;;4851229;29;20045;-83
2022/10/24 09:49:34;;;;;;;10.48;1.70;;;15.80;99.90;;;;;;4853640;29;20048;-85
2022/10/24 09:52:16;;;;;;;7.05;1.33;;;15.90;99.90;;;;;;4849643;29;20060;-84
2022/10/24 09:54:42;;;;;;;15.90;2.35;;;16.00;99.90;;;;;;4851049;29;20062;-85
2022/10/24 09:57:09;;;;;;;13.23;1.83;;;16.20;99.90;;;;;;4873026;29;20063;-84
2022/10/24 09:59:41;;;;;;;8.05;1.10;;;16.20;99.90;;;;;;4870982;29;20052;-84
2022/10/24 10:02:09;;;;;;;10.43;1.45;;;16.30;99.90;;;;;;4869500;29;20096;-83
2022/10/24 10:04:36;;;;;;;10.95;1.55;;;16.30;99.90;;;;;;4852785;29;20140;-84
2022/10/24 10:07:09;;;;;;;6.68;1.45;;;16.40;99.90;;;;;;4869890;29;20067;-83
2022/10/24 10:09:41;;;;;;;10.80;1.27;;;16.40;99.90;;;;;;4851655;29;20524;-86
2022/10/24 10:12:27;;;;;;;8.68;1.52;;;16.50;99.90;;;;;;4875696;29;20045;-84
2022/10/24 10:14:53;;;;;;;8.77;1.67;;;16.50;99.90;;;;;;4872509;29;20470;-84
2022/10/24 10:17:23;;;;;;;9.90;1.40;;;16.50;99.90;;;;;;4893162;29;20390;-85
2022/10/24 10:19:50;;;;;;;14.75;1.27;;;16.50;99.90;;;;;;4869733;29;20401;-84
2022/10/24 10:22:24;;;;;;;5.72;1.17;;;16.50;99.90;;;;;;4885413;29;20044;-85
2022/10/24 10:24:49;;;;;;;8.98;1.33;;;16.50;99.90;;;;;;4858829;29;20048;-84
2022/10/24 10:27:26;;;;;;;10.35;1.13;;;16.50;99.90;;;;;;4870458;29;20564;-85
2022/10/24 10:30:08;;;;;;;21.17;1.70;;;16.50;99.90;;;;;;4854525;29;20516;-85
2022/10/24 10:32:43;;;;;;;11.33;1.50;;;16.50;99.90;;;;;;4855487;29;20439;-84
2022/10/24 10:35:23;;;;;;;9.85;1.00;;;16.50;99.90;;;;;;4853376;29;20924;-84
2022/10/24 10:37:58;;;;;;;10.80;1.35;;;16.50;99.90;;;;;;4858908;29;20045;-85
2022/10/24 10:40:32;;;;;;;10.27;1.27;;;16.40;99.90;;;;;;4855947;29;20067;-85
2022/10/24 10:43:16;;;;;;;8.32;1.45;;;16.40;99.90;;;;;;4873376;29;20389;-86
2022/10/24 10:45:50;;;;;;;14.50;1.77;;;16.40;99.90;;;;;;4878825;29;20073;-85
2022/10/24 10:48:32;;;;;;;11.90;1.75;;;16.40;99.90;;;;;;4878020;29;20123;-85
2022/10/24 10:51:18;;;;;;;9.07;1.40;;;16.30;99.90;;;;;;4878286;29;20052;-84
2022/10/24 10:53:58;;;;;;;6.85;1.10;;;16.10;99.90;;;;;;4877598;29;20056;-84
2022/10/24 10:56:30;;;;;;;9.65;1.27;;;16.10;99.90;;;;;;4878874;29;20132;-84
2022/10/24 10:59:06;;;;;;;7.72;1.45;;;16.00;99.90;;;;;;4877570;29;20423;-84
2022/10/24 11:01:43;;;;;;;13.95;1.98;;;15.90;99.90;;;;;;4877374;29;20108;-85
2022/10/24 11:04:26;;;;;;;8.90;1.13;;;16.00;99.90;;;;;;4877078;29;20427;-84
2022/10/24 11:06:55;;;;;;;8.65;1.25;;;16.10;99.90;;;;;;4877943;29;20107;-84
2022/10/24 11:09:27;;;;;;;12.55;1.30;;;16.40;99.90;;;;;;4877343;29;20631;-85
2022/10/24 11:12:05;;;;;;;6.10;1.50;;;16.40;99.90;;;;;;4877702;29;20139;-85
2022/10/24 11:14:39;;;;;;;8.15;1.40;;;16.50;99.90;;;;;;4878268;29;20139;-86
2022/10/24 11:17:13;;;;;;;8.80;1.65;;;16.60;99.90;;;;;;4879065;29;20410;-85
2022/10/24 11:19:49;;;;;;;8.43;1.38;;;16.70;99.90;;;;;;4877332;29;20076;-85
2022/10/24 11:22:21;;;;;;;5.50;1.00;;;16.80;99.90;;;;;;4878751;29;20053;-86
2022/10/24 11:24:56;;;;;;;10.27;1.83;;;17.00;99.90;;;;;;4878404;29;20101;-86
2022/10/24 11:27:28;;;;;;;11.43;1.50;;;17.00;99.90;;;;;;4878817;29;20108;-86
2022/10/24 11:30:05;;;;;;;13.40;1.75;;;16.90;99.90;;;;;;4878529;29;20068;-85
2022/10/24 11:32:41;;;;;;;8.38;1.17;;;16.80;99.90;;;;;;4873987;29;20051;-86
2022/10/24 11:35:26;;;;;;;9.55;1.33;;;16.70;99.90;;;;;;4859863;29;20112;-86
2022/10/24 11:37:58;;;;;;;12.68;1.80;;;16.60;99.90;;;;;;4859442;29;20132;-87
2022/10/24 11:40:27;;;;;;;12.32;2.28;;;16.70;99.90;;;;;;4859297;29;20041;-86
2022/10/24 11:43:01;;;;;;;10.48;1.55;;;16.70;99.90;;;;;;4859019;29;20057;-88
2022/10/24 11:45:37;;;;;;;8.63;1.35;;;16.70;99.90;;;;;;4860098;29;20158;-86
2022/10/24 11:48:15;;;;;;;8.50;1.30;;;16.70;99.90;;;;;;4857716;29;20187;-87
2022/10/24 11:50:53;;;;;;;15.95;1.60;;;16.60;99.90;;;;;;4859144;29;20052;-86
2022/10/24 11:53:27;;;;;;;9.35;1.50;;;16.60;99.90;;;;;;4858203;29;20070;-85
2022/10/24 11:56:00;;;;;;;6.82;1.05;;;16.60;99.90;;;;;;4859238;29;20482;-86
2022/10/24 11:58:28;;;;;;;13.63;1.48;;;16.70;99.90;;;;;;4859454;29;20414;-86
2022/10/24 12:01:15;;;;;;;9.70;1.33;;;16.80;99.90;;;;;;4857916;29;20048;-84
2022/10/24 12:03:59;;;;;;;8.20;1.38;;;16.60;99.90;;;;;;4857417;29;20132;-84
2022/10/24 12:07:00;;;;;;;9.57;1.73;;;16.50;99.90;;;;;;4858848;29;20072;-86
2022/10/24 12:09:40;;;;;;;10.02;1.30;;;16.50;99.90;;;;;;4858595;29;20160;-86
2022/10/24 12:12:34;;;;;;;9.80;1.48;;;16.50;99.90;;;;;;4843730;29;20048;-85
2022/10/24 12:15:38;;;;;;;10.60;1.40;;;16.50;99.90;;;;;;4858492;29;20108;-86
2022/10/24 12:18:08;;;;;;;;;;;16.50;99.90;;;;;;4858582;29;20413;-86
2022/10/24 12:20:35;;;;;;;9.98;1.00;;;16.50;99.90;;;;;;4873855;29;19972;-86
2022/10/24 12:23:02;;;;;;;11.35;1.38;;;16.50;99.90;;;;;;4842003;29;20482;-86
2022/10/24 12:25:34;;;;;;;12.98;1.30;;;16.60;99.90;;;;;;4859420;29;20131;-85
2022/10/24 12:28:04;;;;;;;9.55;1.48;;;16.70;99.90;;;;;;4842530;29;20045;-86
2022/10/24 12:30:33;;;;;;;13.80;1.45;;;16.70;99.90;;;;;;4843601;29;20152;-86
2022/10/24 12:33:02;;;;;;;7.30;1.20;;;16.70;99.90;;;;;;4842025;29;20045;-86
2022/10/24 12:35:29;;;;;;;12.60;1.42;;;16.70;99.90;;;;;;4858542;29;20049;-85
2022/10/24 12:37:56;;;;;;;13.27;1.65;;;16.70;99.90;;;;;;4857910;29;20101;-85
2022/10/24 12:40:43;;;;;;;11.02;1.70;;;16.80;99.90;;;;;;4843380;29;20053;-85
2022/10/24 12:43:30;;;;;;;7.13;1.10;;;16.70;99.90;;;;;;4858014;29;20068;-86
2022/10/24 12:46:00;;;;;;;8.00;1.27;;;16.60;99.90;;;;;;4858202;29;20123;-86
2022/10/24 12:48:32;;;;;;;10.60;1.45;;;16.70;99.90;;;;;;4842664;29;20059;-86
2022/10/24 12:51:00;;;;;;;9.73;1.35;;;16.70;99.90;;;;;;4842081;29;20141;-85
2022/10/24 12:53:32;;;;;;;7.93;1.15;;;16.80;99.90;;;;;;4842618;29;20077;-85
2022/10/24 12:55:58;;;;;;;11.05;1.38;;;16.80;99.90;;;;;;4857867;29;20514;-86